Time;durP1;ratioP1;P1;durP2;ratioP2;P2;SDS_P1;SDS_P2;PMS_P1;PMS_P2;Temp;Humidity;BMP_temperature;BMP_pressure;BME280_temperature;BME280_humidity;BME280_pressure;Samples;Min_cycle;Max_cycle;Signal;HPM_P1;HPM_P2
2023/04/21 00:00:24;;;;;;;14.60;13.20;;;;;;;7.19;100.00;101551.53;5070638;28;20058;-35
2023/04/21 00:02:50;;;;;;;14.50;13.20;;;;;;;7.25;100.00;101544.56;5069387;28;20416;-35
2023/04/21 00:05:15;;;;;;;14.53;13.23;;;;;;;7.20;100.00;101536.22;5069430;28;20028;-35
2023/04/21 00:07:40;;;;;;;16.10;14.70;;;;;;;7.11;100.00;101535.50;5069639;28;20115;-35
2023/04/21 00:10:08;;;;;;;17.10;15.37;;;;;;;7.06;100.00;101529.03;5069394;28;20029;-35
2023/04/21 00:12:33;;;;;;;14.68;13.38;;;;;;;7.12;100.00;101525.59;5060521;28;20029;-35
2023/04/21 00:14:59;;;;;;;15.73;14.32;;;;;;;7.09;100.00;101513.38;5057195;28;20031;-35
2023/04/21 00:17:24;;;;;;;16.90;15.35;;;;;;;7.02;100.00;101511.63;5056526;28;20025;-35
2023/04/21 00:19:50;;;;;;;17.10;15.30;;;;;;;6.95;100.00;101498.94;5055816;28;20428;-35
2023/04/21 00:22:16;;;;;;;17.05;15.48;;;;;;;6.90;100.00;101496.00;5056985;28;20037;-35
2023/04/21 00:24:41;;;;;;;16.55;14.95;;;;;;;7.02;100.00;101517.00;5056374;28;20025;-35
2023/04/21 00:27:07;;;;;;;16.83;15.13;;;;;;;7.02;100.00;101500.88;5056611;28;20116;-34
2023/04/21 00:29:32;;;;;;;16.50;15.00;;;;;;;7.06;100.00;101502.16;5056011;28;20771;-35
2023/04/21 00:31:58;;;;;;;15.47;14.07;;;;;;;7.11;100.00;101494.34;5055593;28;20116;-35
2023/04/21 00:34:23;;;;;;;;;;;;;;;7.15;100.00;101491.06;5056053;28;20032;-35
2023/04/21 00:36:49;;;;;;;14.68;13.35;;;;;;;7.11;100.00;101492.47;5055907;28;20432;-35
2023/04/21 00:39:14;;;;;;;15.47;14.00;;;;;;;7.04;100.00;101501.53;5055527;28;20033;-35
2023/04/21 00:41:40;;;;;;;17.83;16.13;;;;;;;6.94;100.00;101493.78;5056561;28;20025;-35
2023/04/21 00:44:07;;;;;;;15.45;14.05;;;;;;;7.02;100.00;101495.47;5055722;28;20268;-35
2023/04/21 00:46:33;;;;;;;17.60;14.45;;;;;;;6.98;100.00;101492.38;5055969;28;20044;-35
2023/04/21 00:48:59;;;;;;;;;;;;;;;7.03;100.00;101487.25;5056105;28;20096;-35
2023/04/21 00:51:27;;;;;;;16.23;14.68;;;;;;;7.01;100.00;101488.44;5055586;28;20003;-35
2023/04/21 00:53:53;;;;;;;15.63;14.15;;;;;;;7.02;100.00;101490.94;5055321;28;20413;-36
2023/04/21 00:56:18;;;;;;;16.17;14.68;;;;;;;6.83;100.00;101476.28;5055618;28;20116;-35
2023/04/21 00:58:44;;;;;;;15.37;13.87;;;;;;;6.89;100.00;101480.91;5055540;28;20486;-34
2023/04/21 01:01:12;;;;;;;15.82;14.23;;;;;;;7.00;100.00;101492.16;5054458;28;20767;-35
2023/04/21 01:03:37;;;;;;;15.07;13.68;;;;;;;6.95;100.00;101480.13;5055591;28;20044;-35
2023/04/21 01:06:02;;;;;;;16.70;14.65;;;;;;;7.00;100.00;101481.41;5056016;28;20404;-35
2023/04/21 01:08:28;;;;;;;17.23;15.43;;;;;;;6.96;100.00;101484.47;5055275;28;20090;-35
2023/04/21 01:10:53;;;;;;;17.67;16.00;;;;;;;6.89;100.00;101485.44;5055845;28;20259;-35
2023/04/21 01:13:21;;;;;;;15.17;13.73;;;;;;;6.79;100.00;101460.72;5055269;28;20358;-34
2023/04/21 01:15:46;;;;;;;17.05;15.35;;;;;;;6.99;100.00;101483.28;5055451;28;20021;-35
2023/04/21 01:18:12;;;;;;;16.60;15.00;;;;;;;7.03;100.00;101483.69;5055654;28;20025;-35
2023/04/21 01:20:37;;;;;;;16.07;14.37;;;;;;;7.07;100.00;101472.38;5055308;28;20025;-35
2023/04/21 01:23:03;;;;;;;16.88;15.27;;;;;;;6.96;100.00;101465.66;5054477;28;20059;-35
2023/04/21 01:25:29;;;;;;;15.85;14.35;;;;;;;7.00;100.00;101470.66;5054884;28;20127;-35
2023/04/21 01:27:54;;;;;;;16.90;15.20;;;;;;;6.90;100.00;101458.34;5054007;28;20071;-35
2023/04/21 01:30:20;;;;;;;17.23;15.48;;;;;;;6.86;100.00;101459.75;5055724;28;20029;-35
2023/04/21 01:32:45;;;;;;;16.90;15.20;;;;;;;6.93;100.00;101468.75;5055103;28;20512;-35
2023/04/21 01:35:11;;;;;;;16.23;14.63;;;;;;;6.91;100.00;101461.88;5055415;28;20502;-35
2023/04/21 01:37:36;;;;;;;16.92;15.23;;;;;;;7.01;100.00;101467.75;5054751;28;20272;-35
2023/04/21 01:40:05;;;;;;;19.13;15.60;;;;;;;7.02;100.00;101471.28;5054719;28;20058;-35
2023/04/21 01:42:31;;;;;;;17.00;15.30;;;;;;;6.92;100.00;101463.53;5054587;28;20036;-35
2023/04/21 01:44:57;;;;;;;16.48;14.90;;;;;;;6.93;100.00;101460.69;5054615;28;20036;-35
2023/04/21 01:47:24;;;;;;;18.42;16.52;;;;;;;6.86;100.00;101448.19;5053327;28;20032;-35
2023/04/21 01:49:49;;;;;;;17.92;16.13;;;;;;;6.88;100.00;101456.88;5055027;28;20032;-35
2023/04/21 01:52:15;;;;;;;17.02;15.32;;;;;;;6.89;100.00;101453.19;5054131;28;20405;-35
2023/04/21 01:54:40;;;;;;;17.27;15.57;;;;;;;6.85;100.00;101435.75;5054695;28;20032;-35
2023/04/21 01:57:06;;;;;;;18.05;16.25;;;;;;;6.74;100.00;101431.75;5055029;28;20515;-35
2023/04/21 01:59:31;;;;;;;17.77;16.07;;;;;;;6.84;100.00;101434.09;5054278;28;20043;-35
2023/04/21 02:01:56;;;;;;;16.43;14.73;;;;;;;6.83;100.00;101438.66;5054174;28;20041;-35
2023/04/21 02:04:22;;;;;;;17.57;15.67;;;;;;;6.80;100.00;101433.66;5053960;28;20755;-35
2023/04/21 02:06:47;;;;;;;17.20;15.43;;;;;;;6.76;100.00;101416.22;5054475;28;20381;-35
2023/04/21 02:09:12;;;;;;;16.33;14.83;;;;;;;6.79;100.00;101420.41;5053924;28;20032;-35
2023/04/21 02:11:38;;;;;;;17.43;15.57;;;;;;;6.81;100.00;101421.03;5054413;28;20035;-35
2023/04/21 02:14:03;;;;;;;17.13;15.43;;;;;;;6.79;100.00;101415.03;5054128;28;20115;-35
2023/04/21 02:16:29;;;;;;;18.10;16.20;;;;;;;6.78;100.00;101413.34;5053346;28;20487;-35
2023/04/21 02:18:56;;;;;;;18.08;16.13;;;;;;;6.74;100.00;101401.34;5053943;28;20025;-35
2023/04/21 02:21:22;;;;;;;17.85;16.05;;;;;;;6.72;100.00;101405.03;5054702;28;20025;-35
2023/04/21 02:23:48;;;;;;;18.10;16.20;;;;;;;6.76;100.00;101400.09;5054123;28;20408;-35
2023/04/21 02:26:14;;;;;;;18.25;16.13;;;;;;;6.79;100.00;101405.13;5053688;28;20033;-35
2023/04/21 02:28:39;;;;;;;18.30;16.50;;;;;;;6.81;100.00;101400.38;5054050;28;20105;-35
2023/04/21 02:31:04;;;;;;;17.90;16.00;;;;;;;6.82;100.00;101401.19;5054204;28;20043;-35
2023/04/21 02:33:30;;;;;;;18.47;16.17;;;;;;;6.84;100.00;101400.00;5053746;28;20021;-35
2023/04/21 02:35:55;;;;;;;18.77;16.80;;;;;;;6.81;100.00;101396.84;5054160;28;20465;-35
2023/04/21 02:38:20;;;;;;;18.53;16.63;;;;;;;6.79;100.00;101399.72;5054001;28;20098;-35
2023/04/21 02:40:46;;;;;;;19.67;17.70;;;;;;;6.81;100.00;101400.38;5053657;28;20291;-35
2023/04/21 02:43:13;;;;;;;19.53;17.50;;;;;;;6.76;100.00;101381.28;5053354;28;20029;-35
2023/04/21 02:45:38;;;;;;;21.52;19.23;;;;;;;6.71;100.00;101367.59;5052705;28;20029;-35
2023/04/21 02:48:04;;;;;;;20.20;18.13;;;;;;;6.85;100.00;101398.13;5054079;28;20112;-35
2023/04/21 02:50:29;;;;;;;22.75;19.15;;;;;;;6.74;100.00;101372.59;5053244;28;20033;-35
2023/04/21 02:52:54;;;;;;;20.67;18.50;;;;;;;6.85;100.00;101382.00;5053782;28;20039;-35
2023/04/21 02:55:21;;;;;;;23.13;20.63;;;;;;;6.79;100.00;101380.91;5054102;28;20104;-35
2023/04/21 02:57:47;;;;;;;22.30;19.92;;;;;;;6.70;100.00;101366.78;5053652;28;20061;-34
2023/04/21 03:00:12;;;;;;;22.55;19.80;;;;;;;6.80;100.00;101379.06;5053900;28;20092;-34
2023/04/21 03:02:38;;;;;;;22.67;20.27;;;;;;;6.80;100.00;101377.19;5053946;28;20045;-35
2023/04/21 03:05:04;;;;;;;22.33;20.10;;;;;;;6.78;100.00;101381.91;5053772;28;20443;-35
2023/04/21 03:07:29;;;;;;;21.67;19.43;;;;;;;6.70;100.00;101363.25;5053898;28;20027;-35
2023/04/21 03:09:54;;;;;;;23.80;21.20;;;;;;;6.76;100.00;101378.59;5053711;28;20267;-35
2023/04/21 03:12:20;;;;;;;24.27;21.77;;;;;;;6.79;100.00;101380.09;5053278;28;20268;-35
2023/04/21 03:14:45;;;;;;;23.37;20.80;;;;;;;6.80;100.00;101374.50;5054211;28;20071;-35
2023/04/21 03:17:10;;;;;;;23.23;20.83;;;;;;;6.80;100.00;101379.88;5053310;28;20432;-35
2023/04/21 03:19:36;;;;;;;27.37;24.43;;;;;;;6.76;100.00;101377.78;5053247;28;20492;-34
2023/04/21 03:22:01;;;;;;;25.50;22.83;;;;;;;6.75;100.00;101374.25;5053298;28;20435;-34
2023/04/21 03:24:27;;;;;;;27.13;22.40;;;;;;;6.77;100.00;101374.88;5053863;28;20060;-34
2023/04/21 03:26:52;;;;;;;25.73;23.00;;;;;;;6.75;100.00;101366.19;5052963;28;20036;-34
2023/04/21 03:29:17;;;;;;;28.43;25.33;;;;;;;6.63;100.00;101351.59;5052865;28;20268;-35
2023/04/21 03:31:43;;;;;;;28.67;25.67;;;;;;;6.71;100.00;101364.91;5053545;28;20033;-35
2023/04/21 03:34:08;;;;;;;26.57;23.77;;;;;;;6.68;100.00;101363.44;5052819;28;20025;-35
2023/04/21 03:36:33;;;;;;;26.77;23.90;;;;;;;6.70;100.00;101364.09;5052861;28;20056;-35
2023/04/21 03:38:59;;;;;;;26.50;23.60;;;;;;;6.70;100.00;101369.47;5052880;28;20155;-35
2023/04/21 03:41:24;;;;;;;25.83;23.17;;;;;;;6.72;100.00;101366.56;5053342;28;20028;-35
2023/04/21 03:43:51;;;;;;;31.25;23.73;;;;;;;6.74;100.00;101358.34;5052978;28;20029;-34
2023/04/21 03:46:20;;;;;;;30.02;24.58;;;;;;;6.73;100.00;101360.16;5053022;28;20029;-34
2023/04/21 03:48:46;;;;;;;28.30;24.60;;;;;;;6.72;100.00;101361.19;5056715;28;20029;-35
2023/04/21 03:51:12;;;;;;;26.85;24.05;;;;;;;6.77;100.00;101364.13;5056515;28;20036;-34
2023/04/21 03:53:37;;;;;;;27.45;24.55;;;;;;;6.79;100.00;101358.59;5056412;28;20033;-34
2023/04/21 03:56:03;;;;;;;29.53;23.83;;;;;;;6.79;100.00;101356.72;5057522;28;20033;-35
2023/04/21 03:58:28;;;;;;;28.20;24.97;;;;;;;6.71;100.00;101344.25;5057162;28;20651;-35
2023/04/21 04:00:53;;;;;;;28.50;25.10;;;;;;;6.77;100.00;101356.06;5056511;28;20302;-35
2023/04/21 04:03:19;;;;;;;28.10;24.57;;;;;;;6.76;100.00;101351.72;5056314;28;20025;-35
2023/04/21 04:05:44;;;;;;;29.10;25.13;;;;;;;6.75;100.00;101355.44;5056805;28;20032;-34
2023/04/21 04:08:09;;;;;;;30.00;26.60;;;;;;;6.73;100.00;101352.09;5056351;28;20271;-35
2023/04/21 04:10:35;;;;;;;28.57;24.80;;;;;;;6.73;100.00;101360.16;5056707;28;20263;-35
2023/04/21 04:13:00;;;;;;;30.37;24.93;;;;;;;6.68;100.00;101357.22;5056045;28;20075;-35
2023/04/21 04:15:26;;;;;;;26.23;23.43;;;;;;;6.73;100.00;101362.84;5056073;28;20040;-35
2023/04/21 04:17:51;;;;;;;28.25;25.15;;;;;;;6.72;100.00;101361.19;5056243;28;20033;-35
2023/04/21 04:20:17;;;;;;;29.50;24.40;;;;;;;6.72;100.00;101356.66;5056186;28;20068;-35
2023/04/21 04:22:42;;;;;;;28.50;25.35;;;;;;;6.67;100.00;101356.41;5056475;28;20052;-36
2023/04/21 04:25:08;;;;;;;27.57;24.57;;;;;;;6.71;100.00;101356.84;5056164;28;20029;-36
2023/04/21 04:27:33;;;;;;;30.63;25.88;;;;;;;6.65;100.00;101354.94;5055618;28;20033;-36
2023/04/21 04:29:59;;;;;;;28.17;25.10;;;;;;;6.68;100.00;101355.38;5056681;28;20138;-36
2023/04/21 04:32:27;;;;;;;31.93;26.00;;;;;;;6.69;100.00;101369.66;5054807;28;20029;-36
2023/04/21 04:34:54;;;;;;;28.17;24.90;;;;;;;6.69;100.00;101362.44;5056220;28;20103;-36
2023/04/21 04:37:20;;;;;;;34.45;27.52;;;;;;;6.65;100.00;101365.69;5055592;28;20082;-35
2023/04/21 04:39:46;;;;;;;;;;;;;;;6.72;100.00;101372.78;5056231;28;20029;-36
2023/04/21 04:42:11;;;;;;;27.15;24.25;;;;;;;6.69;100.00;101362.44;5056171;28;19920;-36
2023/04/21 04:44:36;;;;;;;29.80;26.40;;;;;;;6.65;100.00;101365.69;5055809;28;20469;-36
2023/04/21 04:47:02;;;;;;;31.30;26.50;;;;;;;6.63;100.00;101363.19;5056057;28;20053;-36
2023/04/21 04:49:28;;;;;;;30.02;26.77;;;;;;;6.65;100.00;101371.06;5056162;28;20449;-36
2023/04/21 04:51:54;;;;;;;28.45;24.75;;;;;;;6.68;100.00;101376.03;5054197;28;20036;-36
2023/04/21 04:54:19;;;;;;;32.10;28.67;;;;;;;6.64;100.00;101375.63;5056157;28;20017;-36
2023/04/21 04:56:44;;;;;;;29.53;25.57;;;;;;;6.66;100.00;101365.50;5055650;28;20423;-36
2023/04/21 04:59:10;;;;;;;31.42;26.38;;;;;;;6.66;100.00;101372.72;5055662;28;20029;-36
2023/04/21 05:01:36;;;;;;;29.33;25.98;;;;;;;6.67;100.00;101371.69;5056266;28;20588;-36
2023/04/21 05:04:02;;;;;;;30.35;27.15;;;;;;;6.69;100.00;101375.03;5055934;28;20075;-36
2023/04/21 05:06:28;;;;;;;31.40;27.40;;;;;;;6.71;100.00;101371.13;5055370;28;20485;-36
2023/04/21 05:08:53;;;;;;;30.40;26.98;;;;;;;6.72;100.00;101380.00;5055279;28;20029;-36
2023/04/21 05:11:19;;;;;;;33.00;29.07;;;;;;;6.71;100.00;101381.03;5055671;28;20056;-36
2023/04/21 05:13:44;;;;;;;31.63;27.57;;;;;;;6.72;100.00;101383.53;5055800;28;20033;-36
2023/04/21 05:16:10;;;;;;;32.00;27.17;;;;;;;6.68;100.00;101370.66;5055264;28;20260;-35
2023/04/21 05:18:36;;;;;;;32.90;28.23;;;;;;;6.69;100.00;101372.34;5054862;28;20476;-36
2023/04/21 05:21:01;;;;;;;;;;;;;;;6.80;100.00;101384.44;5055143;28;20039;-36
2023/04/21 05:23:27;;;;;;;30.93;26.07;;;;;;;6.65;100.00;101376.44;5055345;28;20008;-36
2023/04/21 05:25:52;;;;;;;34.73;29.70;;;;;;;6.63;100.00;101379.31;5054962;28;20271;-36
2023/04/21 05:28:17;;;;;;;35.53;30.10;;;;;;;6.63;100.00;101389.22;5054939;28;20017;-36
2023/04/21 05:30:43;;;;;;;30.80;26.80;;;;;;;6.67;100.00;101385.13;5055260;28;20066;-36
2023/04/21 05:33:08;;;;;;;35.00;28.40;;;;;;;6.67;100.00;101391.34;5055105;28;20381;-36
2023/04/21 05:35:34;;;;;;;33.33;28.83;;;;;;;6.72;100.00;101393.44;5054815;28;20568;-36
2023/04/21 05:38:00;;;;;;;36.67;29.80;;;;;;;6.70;100.00;101396.34;5054451;28;20028;-36
2023/04/21 05:40:25;;;;;;;34.10;29.10;;;;;;;6.75;100.00;101398.44;5055243;28;20029;-36
2023/04/21 05:42:50;;;;;;;35.43;29.57;;;;;;;6.75;100.00;101390.38;5054422;28;20108;-36
2023/04/21 05:45:16;;;;;;;34.63;29.77;;;;;;;6.85;100.00;101398.97;5055218;28;20029;-35
2023/04/21 05:47:41;;;;;;;34.17;29.80;;;;;;;6.88;100.00;101397.72;5054535;28;20274;-37
2023/04/21 05:50:07;;;;;;;33.87;29.37;;;;;;;6.92;100.00;101404.38;5055075;28;20467;-35
2023/04/21 05:52:33;;;;;;;36.53;30.92;;;;;;;6.96;100.00;101409.19;5054956;28;20110;-35
2023/04/21 05:54:59;;;;;;;34.85;29.77;;;;;;;6.96;100.00;101397.59;5054085;28;20102;-35
2023/04/21 05:57:25;;;;;;;33.55;29.88;;;;;;;6.95;100.00;101394.09;5054288;28;20029;-35
2023/04/21 05:59:50;;;;;;;34.63;29.08;;;;;;;7.07;100.00;101410.50;5054149;28;20036;-35
2023/04/21 06:02:16;;;;;;;36.90;31.23;;;;;;;7.00;100.00;101409.63;5054366;28;20059;-36
2023/04/21 06:04:41;;;;;;;35.53;31.47;;;;;;;7.10;100.00;101412.00;5054744;28;20021;-36
2023/04/21 06:07:09;;;;;;;32.83;28.73;;;;;;;7.16;100.00;101408.53;5054276;28;20032;-36
2023/04/21 06:09:35;;;;;;;35.00;31.08;;;;;;;7.15;100.00;101410.38;5053589;28;20032;-35
2023/04/21 06:12:01;;;;;;;35.45;30.50;;;;;;;7.18;100.00;101401.94;5054136;28;20035;-36
2023/04/21 06:14:26;;;;;;;;;;;;;;;7.24;100.00;101400.31;5054195;28;20485;-36
2023/04/21 06:16:52;;;;;;;33.85;28.33;;;;;;;7.31;100.00;101394.97;5054042;28;19909;-36
2023/04/21 06:19:17;;;;;;;32.87;28.10;;;;;;;7.36;100.00;101385.28;5053714;28;20104;-35
2023/04/21 06:21:42;;;;;;;34.50;29.50;;;;;;;7.41;100.00;101393.59;5053952;28;20041;-35
2023/04/21 06:24:08;;;;;;;33.10;29.37;;;;;;;7.49;100.00;101400.69;5054191;28;20373;-35
2023/04/21 06:26:33;;;;;;;32.17;28.73;;;;;;;7.52;100.00;101394.09;5053901;28;20035;-35
2023/04/21 06:28:59;;;;;;;32.33;28.83;;;;;;;7.57;100.00;101397.03;5053539;28;20120;-35
2023/04/21 06:31:24;;;;;;;31.47;28.07;;;;;;;7.60;100.00;101389.38;5054424;28;20055;-35
2023/04/21 06:33:50;;;;;;;31.93;28.03;;;;;;;7.68;100.00;101402.69;5053778;28;20471;-35
2023/04/21 06:36:15;;;;;;;33.40;29.10;;;;;;;7.79;100.00;101400.47;5054346;28;20515;-35
2023/04/21 06:38:42;;;;;;;32.37;28.97;;;;;;;7.89;100.00;101398.22;5053475;28;20060;-35
2023/04/21 06:41:08;;;;;;;33.63;29.42;;;;;;;7.95;100.00;101397.41;5054180;28;20025;-35
2023/04/21 06:43:33;;;;;;;32.97;29.35;;;;;;;7.91;100.00;101398.88;5054158;28;20461;-35
2023/04/21 06:45:59;;;;;;;32.08;28.65;;;;;;;8.05;100.00;101405.97;5053672;28;20029;-35
2023/04/21 06:48:25;;;;;;;32.33;28.92;;;;;;;8.11;100.00;101397.09;5053582;28;20048;-35
2023/04/21 06:50:50;;;;;;;32.50;28.40;;;;;;;8.18;100.00;101395.25;5054135;28;20028;-35
2023/04/21 06:53:17;;;;;;;31.80;28.33;;;;;;;8.33;100.00;101388.88;5053507;28;20029;-35
2023/04/21 06:55:42;;;;;;;;;;;;;;;8.37;100.00;101391.00;5054567;28;20404;-35
2023/04/21 06:58:08;;;;;;;27.52;24.52;;;;;;;8.39;100.00;101401.56;5053714;28;19916;-35
2023/04/21 07:00:33;;;;;;;30.10;26.48;;;;;;;8.39;100.00;101401.56;5053343;28;20048;-35
2023/04/21 07:02:58;;;;;;;29.23;26.10;;;;;;;8.38;100.00;101389.13;5053414;28;20469;-35
2023/04/21 07:05:24;;;;;;;29.57;26.47;;;;;;;8.40;100.00;101382.50;5053439;28;20421;-35
2023/04/21 07:07:49;;;;;;;30.05;27.02;;;;;;;8.42;100.00;101390.38;5053619;28;20099;-35
2023/04/21 07:10:18;;;;;;;28.53;25.73;;;;;;;8.60;100.00;101387.94;5053730;28;20087;-35
2023/04/21 07:12:44;;;;;;;27.83;25.02;;;;;;;8.67;100.00;101387.94;5053811;28;20350;-35
2023/04/21 07:15:10;;;;;;;27.85;25.13;;;;;;;8.73;100.00;101392.50;5053605;28;20036;-35
2023/04/21 07:17:36;;;;;;;28.38;25.48;;;;;;;8.77;100.00;101399.97;5053309;28;20416;-35
2023/04/21 07:20:01;;;;;;;28.80;25.87;;;;;;;8.79;100.00;101394.41;5053312;28;20025;-35
2023/04/21 07:22:26;;;;;;;27.20;24.50;;;;;;;8.91;100.00;101400.00;5055577;28;20272;-35
2023/04/21 07:24:52;;;;;;;26.30;23.77;;;;;;;8.97;100.00;101405.41;5057905;28;20055;-35
2023/04/21 07:27:18;;;;;;;25.50;23.00;;;;;;;9.00;100.00;101404.16;5057814;28;20108;-35
2023/04/21 07:29:43;;;;;;;24.10;21.73;;;;;;;8.96;100.00;101400.22;5057222;28;20087;-36
2023/04/21 07:32:09;;;;;;;26.67;23.50;;;;;;;9.01;100.00;101406.66;5057437;28;20029;-35
2023/04/21 07:34:34;;;;;;;24.50;22.07;;;;;;;9.06;100.00;101402.50;5057416;28;20025;-36
2023/04/21 07:36:59;;;;;;;24.27;21.97;;;;;;;9.08;100.00;101390.47;5057324;28;20577;-36
2023/04/21 07:39:25;;;;;;;24.40;21.93;;;;;;;9.20;100.00;101387.97;5057844;28;20268;-36
2023/04/21 07:41:50;;;;;;;24.97;22.20;;;;;;;9.23;100.00;101390.28;5057013;28;20025;-36
2023/04/21 07:44:16;;;;;;;23.40;21.13;;;;;;;9.35;100.00;101382.34;5057230;28;20033;-36
2023/04/21 07:46:41;;;;;;;25.60;22.92;;;;;;;9.45;100.00;101380.88;5056647;28;20108;-36
2023/04/21 07:49:07;;;;;;;24.08;21.58;;;;;;;9.47;100.00;101388.78;5057069;28;20021;-35
2023/04/21 07:51:32;;;;;;;22.95;20.55;;;;;;;9.52;100.00;101387.13;5056517;28;20478;-35
2023/04/21 07:53:58;;;;;;;21.93;19.30;;;;;;;9.39;100.00;101362.84;5057027;28;20029;-35
2023/04/21 07:56:23;;;;;;;21.67;19.48;;;;;;;9.62;100.00;101393.94;5056989;28;20025;-35
2023/04/21 07:58:48;;;;;;;20.57;18.67;;;;;;;9.75;100.00;101389.31;5056430;28;20043;-35
2023/04/21 08:01:14;;;;;;;23.05;20.45;;;;;;;9.85;100.00;101388.88;5056900;28;20132;-35
2023/04/21 08:03:39;;;;;;;22.92;20.63;;;;;;;9.81;100.00;101390.38;5057314;28;20104;-35
2023/04/21 08:06:05;;;;;;;21.08;18.98;;;;;;;9.97;100.00;101380.97;5057110;28;20043;-35
2023/04/21 08:08:31;;;;;;;22.45;20.23;;;;;;;10.08;100.00;101382.97;5056474;28;20155;-36
2023/04/21 08:10:56;;;;;;;20.23;18.13;;;;;;;10.09;100.00;101375.69;5056761;28;20362;-35
2023/04/21 08:13:24;;;;;;;20.08;18.13;;;;;;;10.18;100.00;101380.63;5056616;28;20025;-35
2023/04/21 08:15:53;;;;;;;20.42;18.42;;;;;;;10.28;100.00;101391.03;5056038;28;20036;-36
2023/04/21 08:18:19;;;;;;;19.60;17.70;;;;;;;10.41;100.00;101379.31;5055908;28;20492;-35
2023/04/21 08:20:46;;;;;;;16.90;15.30;;;;;;;10.55;100.00;101381.72;5057022;28;20021;-35
2023/04/21 08:23:12;;;;;;;16.90;15.30;;;;;;;10.53;100.00;101370.28;5056049;28;20037;-35
2023/04/21 08:25:38;;;;;;;16.73;15.13;;;;;;;10.56;100.00;101366.31;5056156;28;20036;-35
2023/04/21 08:28:03;;;;;;;16.92;15.32;;;;;;;10.73;100.00;101369.31;5056695;28;20021;-35
2023/04/21 08:30:29;;;;;;;27.08;15.70;;;;;;;10.93;100.00;101386.25;5056337;28;20040;-35
2023/04/21 08:32:54;;;;;;;15.80;14.20;;;;;;;10.81;100.00;101358.25;5056399;28;20025;-35
2023/04/21 08:35:20;;;;;;;15.27;13.68;;;;;;;10.82;100.00;101362.59;5056603;28;20075;-35
2023/04/21 08:37:45;;;;;;;17.38;15.55;;;;;;;10.99;100.00;101368.31;5055675;28;20518;-35
2023/04/21 08:40:11;;;;;;;15.40;13.90;;;;;;;11.00;100.00;101365.38;5056385;28;20048;-36
2023/04/21 08:42:38;;;;;;;15.20;13.80;;;;;;;11.12;100.00;101364.63;5055513;28;20033;-36
2023/04/21 08:45:04;;;;;;;16.40;14.80;;;;;;;11.14;100.00;101351.72;5055816;28;20033;-36
2023/04/21 08:47:31;;;;;;;17.00;14.90;;;;;;;11.41;100.00;101369.34;5055740;28;20029;-36
2023/04/21 08:49:58;;;;;;;15.63;14.05;;;;;;;11.47;100.00;101351.41;5056515;28;20339;-35
2023/04/21 08:52:23;;;;;;;14.75;13.38;;;;;;;11.60;100.00;101368.31;5055686;28;20029;-35
2023/04/21 08:54:52;;;;;;;14.07;12.85;;;;;;;11.47;100.00;101371.19;5056481;28;20385;-35
2023/04/21 08:57:20;;;;;;;14.48;13.18;;;;;;;11.53;100.00;101373.00;5056350;28;20353;-36
2023/04/21 08:59:45;;;;;;;14.98;13.48;;;;;;;11.63;100.00;101355.41;5055358;28;20025;-36
2023/04/21 09:02:14;;;;;;;13.57;12.38;;;;;;;11.75;100.00;101367.13;5055908;28;20040;-36
2023/04/21 09:04:42;;;;;;;15.75;14.30;;;;;;;11.70;100.00;101356.13;5055406;28;20024;-36
2023/04/21 09:07:08;;;;;;;14.55;13.15;;;;;;;11.66;100.00;101369.31;5055391;28;20040;-36
2023/04/21 09:09:50;;;;;;;;;;;;;;;11.76;100.00;101360.66;5055484;28;20461;-36
2023/04/21 09:12:16;;;;;;;13.98;12.65;;;;;;;11.63;100.00;101355.41;5055321;28;19913;-36
2023/04/21 09:14:42;;;;;;;14.43;13.02;;;;;;;11.70;100.00;101356.13;5056335;28;20358;-36
2023/04/21 09:17:07;;;;;;;14.00;12.75;;;;;;;11.76;100.00;101361.50;5055454;28;20039;-36
2023/04/21 09:19:33;;;;;;;13.03;11.83;;;;;;;11.82;100.00;101359.78;5055104;28;20112;-36
2023/04/21 09:22:02;;;;;;;;;;;;;;;11.96;100.00;101361.28;5056051;28;20021;-36
2023/04/21 09:24:27;;;;;;;12.48;11.27;;;;;;;12.00;100.00;101354.34;5054809;28;19982;-36
2023/04/21 09:26:53;;;;;;;13.80;12.50;;;;;;;12.07;100.00;101352.38;5053840;28;20038;-36
2023/04/21 09:29:25;;;;;;;13.07;11.88;;;;;;;12.16;100.00;101352.91;5054700;28;20488;-36
2023/04/21 09:31:51;;;;;;;13.23;12.02;;;;;;;12.34;100.00;101350.13;5055436;28;20032;-36
2023/04/21 09:34:25;;;;;;;;;;;;;;;12.49;100.00;101354.31;5055222;28;20028;-36
2023/04/21 09:37:01;;;;;;;12.20;11.07;;;;;;;12.41;100.00;101347.34;5055093;28;19952;-36
2023/04/21 09:39:31;;;;;;;13.90;12.50;;;;;;;12.43;100.00;101349.81;5054702;28;20025;-36
2023/04/21 09:41:57;;;;;;;12.80;11.63;;;;;;;12.32;100.00;101348.72;5054318;28;20029;-37
2023/04/21 09:44:24;;;;;;;13.60;12.30;;;;;;;12.17;100.00;101351.03;5053485;28;20029;-35
2023/04/21 09:46:52;;;;;;;13.13;11.93;;;;;;;12.32;100.00;101346.00;5054841;28;20025;-35
2023/04/21 09:49:21;;;;;;;12.23;11.10;;;;;;;12.42;100.00;101340.84;5054786;28;20112;-36
2023/04/21 09:51:47;;;;;;;12.60;11.50;;;;;;;12.53;100.00;101348.19;5054556;28;20103;-35
2023/04/21 09:54:20;;;;;;;12.93;11.73;;;;;;;12.61;100.00;101331.59;5054440;28;20085;-36
2023/04/21 09:56:52;;;;;;;14.07;12.60;;;;;;;12.74;100.00;101333.28;5054420;28;20040;-36
2023/04/21 09:59:27;;;;;;;12.75;11.55;;;;;;;12.70;99.97;101337.50;5054380;28;20033;-35
2023/04/21 10:01:54;;;;;;;11.35;10.15;;;;;;;12.71;99.95;101328.31;5054810;28;20048;-35
2023/04/21 10:04:22;;;;;;;10.85;9.77;;;;;;;12.93;99.19;101333.16;5054202;28;20124;-36
2023/04/21 10:06:47;;;;;;;9.77;8.88;;;;;;;13.11;98.80;101319.47;5054487;28;20475;-36
2023/04/21 10:09:17;;;;;;;10.23;9.23;;;;;;;13.20;97.16;101337.06;5053921;28;20043;-35
2023/04/21 10:11:42;;;;;;;10.00;9.02;;;;;;;13.10;96.43;101325.97;5054722;28;20036;-35
2023/04/21 10:14:08;;;;;;;9.52;8.63;;;;;;;13.13;94.09;101323.63;5054044;28;20473;-35
2023/04/21 10:16:39;;;;;;;9.85;8.40;;;;;;;13.12;95.44;101326.56;5054122;28;20057;-35
2023/04/21 10:19:24;;;;;;;9.00;8.10;;;;;;;13.08;95.40;101326.22;5054560;28;20028;-35
2023/04/21 10:21:50;;;;;;;10.43;9.43;;;;;;;13.23;95.05;101322.25;5054446;28;20079;-35
2023/04/21 10:24:15;;;;;;;10.35;9.35;;;;;;;13.46;95.78;101319.47;5052980;28;20457;-36
2023/04/21 10:26:41;;;;;;;11.13;10.02;;;;;;;13.62;94.07;101304.34;5054759;28;20029;-35
2023/04/21 10:29:08;;;;;;;10.57;9.63;;;;;;;13.69;91.04;101315.91;5053586;28;20067;-35
2023/04/21 10:31:53;;;;;;;10.95;9.95;;;;;;;14.03;95.68;101308.69;5054089;28;20104;-36
2023/04/21 10:34:35;;;;;;;10.15;9.25;;;;;;;13.76;91.09;101304.88;5053344;28;20385;-36
2023/04/21 10:37:03;;;;;;;9.63;8.73;;;;;;;13.65;90.46;101310.13;5054575;28;20021;-36
2023/04/21 10:39:35;;;;;;;10.32;9.38;;;;;;;13.65;93.85;101295.69;5053672;28;20029;-36
2023/04/21 10:42:12;;;;;;;9.30;8.40;;;;;;;13.66;91.92;101286.47;5053876;28;20068;-36
2023/04/21 10:45:01;;;;;;;10.75;9.85;;;;;;;13.58;91.04;101292.31;5053877;28;20029;-35
2023/04/21 10:47:35;;;;;;;11.15;10.05;;;;;;;13.63;93.34;101285.09;5053614;28;20029;-36
2023/04/21 10:50:10;;;;;;;11.68;10.57;;;;;;;13.61;93.44;101280.94;5053579;28;20116;-36
2023/04/21 10:52:35;;;;;;;11.73;10.73;;;;;;;13.55;93.69;101281.91;5053489;28;20037;-36
2023/04/21 10:55:04;;;;;;;12.07;10.90;;;;;;;13.45;92.21;101262.69;5053309;28;20036;-36
2023/04/21 10:57:33;;;;;;;11.57;10.43;;;;;;;13.41;91.78;101265.03;5053251;28;20817;-36
2023/04/21 10:59:59;;;;;;;11.73;10.73;;;;;;;13.41;94.28;101275.91;5053938;28;20037;-36
2023/04/21 11:02:24;;;;;;;11.45;10.38;;;;;;;13.36;93.91;101267.66;5053317;28;20378;-36
2023/04/21 11:04:53;;;;;;;12.70;11.60;;;;;;;13.71;96.17;101253.16;5053945;28;20037;-35
2023/04/21 11:07:21;;;;;;;11.43;10.32;;;;;;;14.03;92.45;101259.75;5052958;28;20150;-36